createdAt,value
2023-04-15T00:02:18.643Z,99358.03
2023-04-15T00:04:48.069Z,99358.19
2023-04-15T00:07:16.261Z,99350.84
2023-04-15T00:09:44.624Z,99349.75
2023-04-15T00:12:12.386Z,99353.72
2023-04-15T00:14:40.076Z,99346.50
2023-04-15T00:17:07.559Z,99344.31
2023-04-15T00:19:35.014Z,99347.72
2023-04-15T00:22:03.804Z,99345.09
2023-04-15T00:24:31.565Z,99342.28
2023-04-15T00:26:59.902Z,99330.44
2023-04-15T00:29:27.519Z,99334.53
2023-04-15T00:31:55.264Z,99326.34
2023-04-15T00:34:22.726Z,99328.47
2023-04-15T00:36:50.228Z,99322.75
2023-04-15T00:39:19.085Z,99330.84
2023-04-15T00:41:47.223Z,99321.59
2023-04-15T00:44:15.231Z,99333.78
2023-04-15T00:46:44.114Z,99322.97
2023-04-15T00:49:11.802Z,99322.34
2023-04-15T00:51:39.354Z,99319.81
2023-04-15T00:54:07.746Z,99320.59
2023-04-15T00:56:38.595Z,99309.34
2023-04-15T00:59:07.145Z,99315.34
2023-04-15T01:01:35.755Z,99305.66
2023-04-15T01:04:03.668Z,99304.41
2023-04-15T01:06:32.301Z,99302.47
2023-04-15T01:09:00.760Z,99300.50
2023-04-15T01:11:28.891Z,99302.75
2023-04-15T01:13:59.959Z,99302.63
2023-04-15T01:16:28.705Z,99300.69
2023-04-15T01:18:56.937Z,99299.84
2023-04-15T01:21:24.773Z,99297.72
2023-04-15T01:23:53.715Z,99298.19
2023-04-15T01:26:23.365Z,99291.03
2023-04-15T01:28:51.738Z,99295.06
2023-04-15T01:31:19.271Z,99284.75
2023-04-15T01:33:47.487Z,99282.66
2023-04-15T01:36:15.067Z,99279.75
2023-04-15T01:38:42.534Z,99289.97
2023-04-15T01:41:10.023Z,99282.97
2023-04-15T01:43:38.811Z,99282.63
2023-04-15T01:46:07.098Z,99273.59
2023-04-15T01:48:34.684Z,99282.47
2023-04-15T01:51:03.439Z,99280.31
2023-04-15T01:53:30.925Z,99278.78
2023-04-15T01:55:58.395Z,99287.31
2023-04-15T01:58:26.100Z,99281.00
2023-04-15T02:00:55.057Z,99283.72
2023-04-15T02:03:22.671Z,99285.25
2023-04-15T02:05:50.997Z,99277.81
2023-04-15T02:08:18.474Z,99271.59
2023-04-15T02:10:45.940Z,99272.06
2023-04-15T02:13:13.770Z,99270.84
2023-04-15T02:15:41.258Z,99271.22
2023-04-15T02:18:10.069Z,99265.41
2023-04-15T02:20:37.991Z,99263.16
2023-04-15T02:23:07.310Z,99269.47
2023-04-15T02:25:34.829Z,99275.00
2023-04-15T02:28:02.382Z,99275.81
2023-04-15T02:30:29.858Z,99278.41
2023-04-15T02:32:57.529Z,99277.34
2023-04-15T02:35:26.693Z,99279.13
2023-04-15T02:37:54.219Z,99281.84
2023-04-15T02:40:21.767Z,99278.47
2023-04-15T02:42:49.214Z,99276.09
2023-04-15T02:45:16.971Z,99286.28
2023-04-15T02:47:46.029Z,99276.50
2023-04-15T02:50:15.090Z,99277.81
2023-04-15T02:52:44.649Z,99281.44
2023-04-15T02:55:12.625Z,99275.16
2023-04-15T02:57:41.080Z,99279.38
2023-04-15T03:00:11.533Z,99273.03
2023-04-15T03:02:40.980Z,99275.91
2023-04-15T03:05:12.812Z,99264.47
2023-04-15T03:07:40.923Z,99263.81
2023-04-15T03:10:11.034Z,99266.06
2023-04-15T03:12:38.564Z,99268.22
2023-04-15T03:15:07.008Z,99265.59
2023-04-15T03:17:34.537Z,99265.50
2023-04-15T03:20:02.745Z,99266.25
2023-04-15T03:22:30.455Z,99263.56
2023-04-15T03:24:58.070Z,99257.53
2023-04-15T03:27:26.980Z,99250.31
2023-04-15T03:29:54.450Z,99251.25
2023-04-15T03:32:22.005Z,99244.91
2023-04-15T03:34:49.524Z,99247.78
2023-04-15T03:37:17.007Z,99237.19
2023-04-15T03:39:44.497Z,99236.28
2023-04-15T03:42:12.055Z,99245.28
2023-04-15T03:44:41.326Z,99234.72
2023-04-15T03:47:08.811Z,99232.97
2023-04-15T03:49:36.862Z,99237.31
2023-04-15T03:52:04.402Z,99240.00
2023-04-15T03:54:31.886Z,99244.34
2023-04-15T03:56:59.360Z,99242.56
2023-04-15T03:59:26.888Z,99241.75
2023-04-15T04:01:55.915Z,99237.19
2023-04-15T04:04:23.609Z,99245.34
2023-04-15T04:06:51.253Z,99242.69
2023-04-15T04:09:18.787Z,99234.81
2023-04-15T04:11:46.623Z,99236.56
2023-04-15T04:14:14.101Z,99223.16
2023-04-15T04:16:42.135Z,99226.47
2023-04-15T04:19:11.000Z,99228.31
2023-04-15T04:21:39.615Z,99229.94
2023-04-15T04:24:07.188Z,99224.78
2023-04-15T04:26:34.685Z,99241.50
2023-04-15T04:29:02.457Z,99237.56
2023-04-15T04:31:30.130Z,99239.56
2023-04-15T04:33:57.658Z,99247.03
2023-04-15T04:36:26.560Z,99249.72
2023-04-15T04:38:54.059Z,99250.06
2023-04-15T04:41:21.536Z,99251.03
2023-04-15T04:43:49.166Z,99245.78
2023-04-15T04:46:16.761Z,99245.97
2023-04-15T04:48:47.089Z,99250.22
2023-04-15T04:51:14.770Z,99247.03
2023-04-15T04:53:44.017Z,99243.16
2023-04-15T04:56:11.609Z,99249.59
2023-04-15T04:58:39.138Z,99245.81
2023-04-15T05:01:06.864Z,99247.78
2023-04-15T05:03:34.414Z,99248.22
2023-04-15T05:06:03.094Z,99251.63
2023-04-15T05:08:30.559Z,99248.72
2023-04-15T05:10:59.431Z,99249.75
2023-04-15T05:13:27.089Z,99243.38
2023-04-15T05:15:54.625Z,99245.53
2023-04-15T05:18:22.165Z,99242.53
2023-04-15T05:20:50.391Z,99243.44
2023-04-15T05:23:18.627Z,99243.59
2023-04-15T05:25:46.233Z,99246.31
2023-04-15T05:28:15.075Z,99246.25
2023-04-15T05:30:42.611Z,99246.41
2023-04-15T05:33:10.159Z,99245.44
2023-04-15T05:35:37.666Z,99247.16
2023-04-15T05:38:05.128Z,99253.97
2023-04-15T05:40:32.635Z,99255.84
2023-04-15T05:43:00.128Z,99260.34
2023-04-15T05:45:28.918Z,99259.06
2023-04-15T05:47:56.724Z,99262.19
2023-04-15T05:50:24.290Z,99266.66
2023-04-15T05:52:51.874Z,99265.56
2023-04-15T05:55:19.458Z,99275.28
2023-04-15T05:57:46.938Z,99270.84
2023-04-15T06:00:15.430Z,99270.00
2023-04-15T06:02:44.504Z,99283.28
2023-04-15T06:05:12.109Z,99270.78
2023-04-15T06:07:39.681Z,99279.47
2023-04-15T06:10:08.640Z,99278.56
2023-04-15T06:12:36.220Z,99282.97
2023-04-15T06:15:03.934Z,99277.66
2023-04-15T06:17:31.450Z,99286.47
2023-04-15T06:20:00.315Z,99277.72
2023-04-15T06:22:27.797Z,99280.38
2023-04-15T06:24:55.587Z,99271.28
2023-04-15T06:27:23.672Z,99279.22
2023-04-15T06:29:51.281Z,99282.97
2023-04-15T06:32:18.742Z,99286.50
2023-04-15T06:34:46.231Z,99269.75
2023-04-15T06:37:16.304Z,99288.16
2023-04-15T06:39:44.572Z,99289.03
2023-04-15T06:42:12.283Z,99295.19
2023-04-15T06:44:39.979Z,99289.56
2023-04-15T06:47:07.588Z,99281.78
2023-04-15T06:49:35.073Z,99274.88
2023-04-15T06:52:02.836Z,99280.97
2023-04-15T06:54:31.961Z,99287.00
2023-04-15T06:56:59.456Z,99286.72
2023-04-15T06:59:27.339Z,99284.84
2023-04-15T07:01:54.868Z,99286.41
2023-04-15T07:04:22.492Z,99286.72
2023-04-15T07:06:50.062Z,99289.56
2023-04-15T07:09:17.553Z,99289.88
2023-04-15T07:11:46.374Z,99295.38
2023-04-15T07:14:13.979Z,99293.59
2023-04-15T07:16:41.811Z,99291.22
2023-04-15T07:19:09.366Z,99290.28
2023-04-15T07:21:36.985Z,99306.44
2023-04-15T07:24:04.577Z,99297.56
2023-04-15T07:26:32.106Z,99297.75
2023-04-15T07:29:01.222Z,99294.50
2023-04-15T07:31:29.215Z,99292.53
2023-04-15T07:33:56.799Z,99292.22
2023-04-15T07:36:24.382Z,99285.91
2023-04-15T07:38:52.101Z,99299.09
2023-04-15T07:41:20.461Z,99307.22
2023-04-15T07:43:48.406Z,99300.41
2023-04-15T07:46:17.274Z,99306.66
2023-04-15T07:48:44.793Z,99316.19
2023-04-15T07:51:12.905Z,99314.13
2023-04-15T07:53:40.413Z,99315.78
2023-04-15T07:56:08.306Z,99321.44
2023-04-15T07:58:36.015Z,99325.34
2023-04-15T08:01:03.518Z,99319.81
2023-04-15T08:03:33.275Z,99322.97
2023-04-15T08:06:00.926Z,99318.72
2023-04-15T08:08:28.422Z,99316.91
2023-04-15T08:10:55.914Z,99317.53
2023-04-15T08:13:23.395Z,99326.56
2023-04-15T08:16:13.452Z,99334.44
2023-04-15T08:18:42.409Z,99324.22
2023-04-15T08:21:10.334Z,99330.22
2023-04-15T08:23:38.487Z,99331.66
2023-04-15T08:26:06.027Z,99319.13
2023-04-15T08:28:33.529Z,99335.97
2023-04-15T08:31:01.332Z,99331.78
2023-04-15T08:33:28.932Z,99333.44
2023-04-15T08:35:57.800Z,99325.78
2023-04-15T08:38:25.498Z,99330.03
2023-04-15T08:40:53.277Z,99323.16
2023-04-15T08:43:24.114Z,99323.94
2023-04-15T08:45:52.128Z,99327.97
2023-04-15T08:48:20.361Z,99325.25
2023-04-15T08:50:48.735Z,99338.91
2023-04-15T08:53:17.654Z,99335.38
2023-04-15T08:55:47.707Z,99338.06
2023-04-15T08:58:17.152Z,99329.91
2023-04-15T09:00:44.701Z,99329.59
2023-04-15T09:03:12.487Z,99329.66
2023-04-15T09:05:40.070Z,99332.72
2023-04-15T09:08:07.610Z,99331.13
2023-04-15T09:10:36.763Z,99341.28
2023-04-15T09:13:04.483Z,99338.66
2023-04-15T09:15:34.034Z,99346.78
2023-04-15T09:18:01.599Z,99351.97
2023-04-15T09:20:29.444Z,99358.03
2023-04-15T09:22:57.125Z,99355.22
2023-04-15T09:25:29.289Z,99365.06
2023-04-15T09:28:01.587Z,99352.84
2023-04-15T09:30:29.901Z,99362.56
2023-04-15T09:32:58.918Z,99369.00
2023-04-15T09:35:27.689Z,99369.53
2023-04-15T09:38:02.974Z,99365.16
2023-04-15T09:40:34.816Z,99374.28
2023-04-15T09:43:05.100Z,99378.41
2023-04-15T09:45:33.663Z,99380.25
2023-04-15T09:48:17.880Z,99378.13
2023-04-15T09:50:45.877Z,99372.38
2023-04-15T09:53:17.754Z,99380.97
2023-04-15T09:55:46.821Z,99387.28
2023-04-15T09:58:25.761Z,99384.13
2023-04-15T10:00:54.809Z,99385.00
2023-04-15T10:03:24.557Z,99384.06
2023-04-15T10:05:53.277Z,99393.50
2023-04-15T10:08:22.373Z,99393.00
2023-04-15T10:10:51.764Z,99389.59
2023-04-15T10:13:20.437Z,99394.09
2023-04-15T10:15:52.260Z,99396.59
2023-04-15T10:18:22.284Z,99396.25
2023-04-15T10:20:50.230Z,99403.22
2023-04-15T10:23:18.914Z,99403.19
2023-04-15T10:25:47.157Z,99406.63
2023-04-15T10:28:16.892Z,99410.34
2023-04-15T10:30:44.856Z,99404.06
2023-04-15T10:33:14.170Z,99411.16
2023-04-15T10:35:41.938Z,99408.81
2023-04-15T10:38:33.863Z,99412.91
2023-04-15T10:41:14.195Z,99410.22
2023-04-15T10:43:42.275Z,99412.34
2023-04-15T10:46:09.854Z,99417.19
2023-04-15T10:48:38.789Z,99419.50
2023-04-15T10:51:06.501Z,99411.91
2023-04-15T10:53:34.025Z,99427.50
2023-04-15T10:56:01.559Z,99431.28
2023-04-15T10:58:42.654Z,99437.97
2023-04-15T11:01:10.641Z,99432.44
2023-04-15T11:03:40.973Z,99429.13
2023-04-15T11:06:08.550Z,99437.22
2023-04-15T11:08:56.574Z,99433.22
2023-04-15T11:11:24.123Z,99437.84
2023-04-15T11:13:52.661Z,99433.56
2023-04-15T11:16:20.194Z,99441.63
2023-04-15T11:18:56.740Z,99448.09
2023-04-15T11:21:26.875Z,99438.63
2023-04-15T11:23:54.337Z,99442.28
2023-04-15T11:26:27.244Z,99445.44
2023-04-15T11:28:54.882Z,99452.22
2023-04-15T11:31:23.947Z,99449.09
2023-04-15T11:33:58.073Z,99464.63
2023-04-15T11:36:28.076Z,99460.88
2023-04-15T11:38:55.967Z,99455.09
2023-04-15T11:41:23.911Z,99465.75
2023-04-15T11:43:51.612Z,99458.97
2023-04-15T11:46:19.212Z,99469.34
2023-04-15T11:48:48.104Z,99475.09
2023-04-15T11:51:16.941Z,99474.38
2023-04-15T11:53:46.049Z,99473.00
2023-04-15T11:56:18.986Z,99471.28
2023-04-15T11:58:46.638Z,99484.00
2023-04-15T12:01:14.444Z,99485.63
2023-04-15T12:03:44.001Z,99490.22
2023-04-15T12:06:19.384Z,99482.41
2023-04-15T12:09:08.683Z,99480.53
2023-04-15T12:11:38.614Z,99481.91
2023-04-15T12:14:14.280Z,99476.50
2023-04-15T12:16:48.567Z,99487.09
2023-04-15T12:19:19.663Z,99482.41
2023-04-15T12:21:49.316Z,99501.03
2023-04-15T12:24:16.904Z,99497.19
2023-04-15T12:26:45.995Z,99493.94
2023-04-15T12:29:14.990Z,99495.59
2023-04-15T12:31:50.768Z,99502.59
2023-04-15T12:34:18.803Z,99504.84
2023-04-15T12:36:47.756Z,99501.91
2023-04-15T12:39:15.281Z,99505.78
2023-04-15T12:41:42.957Z,99503.72
2023-04-15T12:44:10.451Z,99513.16
2023-04-15T12:46:38.641Z,99509.97
2023-04-15T12:49:06.155Z,99513.84
2023-04-15T12:51:33.698Z,99524.56
2023-04-15T12:54:02.877Z,99517.78
2023-04-15T12:56:30.688Z,99519.41
2023-04-15T12:58:58.323Z,99537.56
2023-04-15T13:01:26.183Z,99531.22
2023-04-15T13:03:53.779Z,99526.38
2023-04-15T13:06:21.578Z,99526.53
2023-04-15T13:08:57.810Z,99527.09
2023-04-15T13:11:27.711Z,99531.22
2023-04-15T13:13:55.968Z,99533.34
2023-04-15T13:16:23.835Z,99535.97
2023-04-15T13:18:51.770Z,99539.28
2023-04-15T13:21:19.808Z,99542.31
2023-04-15T13:23:47.578Z,99549.91
2023-04-15T13:26:15.082Z,99542.91
2023-04-15T13:28:43.902Z,99548.56
2023-04-15T13:31:11.591Z,99550.91
2023-04-15T13:33:39.086Z,99553.19
2023-04-15T13:36:07.832Z,99559.25
2023-04-15T13:38:35.311Z,99561.38
2023-04-15T13:41:02.801Z,99555.03
2023-04-15T13:43:30.579Z,99561.94
2023-04-15T13:45:59.496Z,99570.25
2023-04-15T13:48:26.996Z,99571.38
2023-04-15T13:50:54.553Z,99571.94
2023-04-15T13:53:33.769Z,99580.91
2023-04-15T13:56:07.292Z,99569.16
2023-04-15T13:58:34.823Z,99588.28
2023-04-15T14:01:05.819Z,99579.38
2023-04-15T14:03:34.074Z,99581.41
2023-04-15T14:06:01.802Z,99575.00
2023-04-15T14:08:29.708Z,99585.09
2023-04-15T14:10:57.675Z,99585.03
2023-04-15T14:13:25.301Z,99596.06
2023-04-15T14:15:52.905Z,99591.91
2023-04-15T14:18:21.733Z,99589.94
2023-04-15T14:20:49.322Z,99600.09
2023-04-15T14:23:16.839Z,99598.22
2023-04-15T14:25:46.735Z,99607.50
2023-04-15T14:28:15.726Z,99601.94
2023-04-15T14:30:43.263Z,99610.38
2023-04-15T14:33:10.802Z,99616.56
2023-04-15T14:35:39.929Z,99619.06
2023-04-15T14:38:10.535Z,99620.50
2023-04-15T14:40:38.534Z,99630.50
2023-04-15T14:43:06.279Z,99633.38
2023-04-15T14:45:33.840Z,99631.06
2023-04-15T14:48:01.540Z,99633.66
2023-04-15T14:50:29.226Z,99636.53
2023-04-15T14:52:58.014Z,99639.94
2023-04-15T14:55:25.770Z,99639.22
2023-04-15T14:57:53.248Z,99646.00
2023-04-15T15:00:20.772Z,99645.13
2023-04-15T15:02:48.518Z,99648.84
2023-04-15T15:05:16.257Z,99646.00
2023-04-15T15:07:43.929Z,99652.44
2023-04-15T15:10:12.851Z,99647.34
2023-04-15T15:12:40.365Z,99656.63
2023-04-15T15:15:25.199Z,99664.13
2023-04-15T15:17:56.219Z,99657.22
2023-04-15T15:20:24.190Z,99667.75
2023-04-15T15:22:51.848Z,99660.59
2023-04-15T15:25:20.674Z,99668.16
2023-04-15T15:27:48.466Z,99670.78
2023-04-15T15:30:16.240Z,99671.22
2023-04-15T15:32:44.145Z,99679.38
2023-04-15T15:35:12.203Z,99682.53
2023-04-15T15:37:39.689Z,99692.53
2023-04-15T15:40:08.193Z,99684.72
2023-04-15T15:42:36.983Z,99692.19
2023-04-15T15:45:05.136Z,99694.22
2023-04-15T15:47:33.135Z,99694.97
2023-04-15T15:50:03.023Z,99692.34
2023-04-15T15:52:31.191Z,99702.19
2023-04-15T15:54:58.806Z,99703.16
2023-04-15T15:57:26.312Z,99703.00
2023-04-15T16:00:09.923Z,99706.56
2023-04-15T16:05:09.907Z,99707.16
2023-04-15T16:07:37.404Z,99703.72
2023-04-15T16:10:05.594Z,99718.19
2023-04-15T16:12:34.835Z,99716.59
2023-04-15T16:15:04.285Z,99718.44
2023-04-15T16:17:31.876Z,99721.13
2023-04-15T16:20:01.200Z,99725.66
2023-04-15T16:22:28.959Z,99727.28
2023-04-15T16:24:56.444Z,99732.69
2023-04-15T16:27:23.935Z,99735.94
2023-04-15T16:29:51.431Z,99729.88
2023-04-15T16:32:20.396Z,99735.88
2023-04-15T16:34:48.377Z,99740.47
2023-04-15T16:37:15.896Z,99751.28
2023-04-15T16:39:43.381Z,99753.13
2023-04-15T16:42:11.133Z,99755.72
2023-04-15T16:44:38.878Z,99755.72
2023-04-15T16:47:06.467Z,99754.75
2023-04-15T16:49:35.552Z,99755.53
2023-04-15T16:52:03.215Z,99758.13
2023-04-15T16:54:31.101Z,99768.13
2023-04-15T16:56:58.606Z,99765.34
2023-04-15T16:59:27.221Z,99768.88
2023-04-15T17:01:55.052Z,99772.84
2023-04-15T17:04:22.893Z,99767.31
2023-04-15T17:06:51.969Z,99776.81
2023-04-15T17:09:19.512Z,99785.81
2023-04-15T17:11:46.995Z,99788.28
2023-04-15T17:14:14.576Z,99789.59
2023-04-15T17:16:43.132Z,99795.59
2023-04-15T17:19:10.640Z,99795.66
2023-04-15T17:21:38.130Z,99791.91
2023-04-15T17:24:07.093Z,99805.69
2023-04-15T17:26:34.661Z,99808.19
2023-04-15T17:29:02.494Z,99808.22
2023-04-15T17:31:30.814Z,99809.16
2023-04-15T17:34:08.712Z,99815.28
2023-04-15T17:36:38.963Z,99812.63
2023-04-15T17:39:07.986Z,99823.63
2023-04-15T17:41:35.538Z,99821.56
2023-04-15T17:44:03.133Z,99814.63
2023-04-15T17:46:31.824Z,99819.84
2023-04-15T17:48:59.351Z,99830.72
2023-04-15T17:51:28.016Z,99828.97
2023-04-15T17:53:55.714Z,99837.13
2023-04-15T17:56:25.096Z,99840.53
2023-04-15T17:58:53.056Z,99848.47
2023-04-15T18:01:22.338Z,99845.88
2023-04-15T18:03:50.180Z,99850.34
2023-04-15T18:06:19.913Z,99854.97
2023-04-15T18:08:47.389Z,99851.41
2023-04-15T18:11:14.877Z,99854.06
2023-04-15T18:13:43.801Z,99859.00
2023-04-15T18:16:11.358Z,99859.94
2023-04-15T18:18:38.857Z,99868.00
2023-04-15T18:21:06.505Z,99871.59
2023-04-15T18:23:33.980Z,99869.13
2023-04-15T18:26:01.538Z,99881.78
2023-04-15T18:28:29.167Z,99888.00
2023-04-15T18:30:57.960Z,99880.81
2023-04-15T18:33:25.542Z,99885.69
2023-04-15T18:35:53.056Z,99890.66
2023-04-15T18:38:20.573Z,99900.56
2023-04-15T18:40:48.093Z,99906.63
2023-04-15T18:43:15.676Z,99898.50
2023-04-15T18:45:43.726Z,99907.56
2023-04-15T18:48:14.173Z,99909.19
2023-04-15T18:50:41.684Z,99912.75
2023-04-15T18:53:09.195Z,99913.72
2023-04-15T18:55:36.745Z,99918.25
2023-04-15T18:58:08.614Z,99921.91
2023-04-15T19:00:40.596Z,99921.84
2023-04-15T19:03:08.619Z,99926.09
2023-04-15T19:05:37.934Z,99933.25
2023-04-15T19:08:05.770Z,99936.81
2023-04-15T19:10:34.971Z,99938.69
2023-04-15T19:13:03.579Z,99932.47
2023-04-15T19:15:31.777Z,99936.94
2023-04-15T19:17:59.347Z,99943.22
2023-04-15T19:20:26.935Z,99936.81
2023-04-15T19:22:56.746Z,99938.81
2023-04-15T19:25:24.259Z,99939.50
2023-04-15T19:27:51.733Z,99950.13
2023-04-15T19:30:19.419Z,99952.16
2023-04-15T19:32:47.049Z,99955.66
2023-04-15T19:35:14.596Z,99956.78
2023-04-15T19:37:42.163Z,99959.41
2023-04-15T19:40:11.469Z,99960.28
2023-04-15T19:42:38.958Z,99962.09
2023-04-15T19:45:07.445Z,99963.75
2023-04-15T19:47:35.212Z,99971.09
2023-04-15T19:50:02.820Z,99972.84
2023-04-15T19:52:30.341Z,99974.66
2023-04-15T19:54:57.842Z,99975.66
2023-04-15T19:57:26.798Z,99977.47
2023-04-15T19:59:54.301Z,99972.88
2023-04-15T20:02:22.256Z,99972.13
2023-04-15T20:04:49.864Z,99971.09
2023-04-15T20:07:17.396Z,99972.13
2023-04-15T20:09:45.407Z,99972.09
2023-04-15T20:12:51.019Z,99973.97
2023-04-15T20:15:01.722Z,99975.59
2023-04-15T20:17:33.330Z,99980.06
2023-04-15T20:20:00.939Z,99979.13
2023-04-15T20:22:28.428Z,99980.19
2023-04-15T20:24:55.926Z,99986.03
2023-04-15T20:27:23.406Z,99981.66
2023-04-15T20:29:51.522Z,99986.41
2023-04-15T20:32:20.471Z,99988.91
2023-04-15T20:34:48.207Z,99986.44
2023-04-15T20:37:16.058Z,99985.63
2023-04-15T20:39:43.528Z,99989.22
2023-04-15T20:42:11.248Z,99989.88
2023-04-15T20:44:39.319Z,99990.81
2023-04-15T20:47:07.160Z,100001.63
2023-04-15T20:49:36.580Z,99994.41
2023-04-15T20:52:04.557Z,100000.66
2023-04-15T20:54:32.077Z,100000.66
2023-04-15T20:56:59.605Z,100002.50
2023-04-15T20:59:27.192Z,99993.63
2023-04-15T21:01:56.838Z,100007.75
2023-04-15T21:04:24.656Z,100004.31
2023-04-15T21:06:53.525Z,100017.63
2023-04-15T21:09:21.008Z,100013.09
2023-04-15T21:12:00.601Z,100017.50
2023-04-15T21:14:29.385Z,100019.25
2023-04-15T21:16:58.064Z,100016.84
2023-04-15T21:19:25.698Z,100023.81
2023-04-15T21:21:54.593Z,100022.97
2023-04-15T21:24:22.077Z,100018.44
2023-04-15T21:26:49.751Z,100030.19
2023-04-15T21:29:17.214Z,100026.44
2023-04-15T21:31:44.797Z,100026.53
2023-04-15T21:34:12.574Z,100027.47
2023-04-15T21:36:40.096Z,100028.34
2023-04-15T21:39:08.888Z,100043.19
2023-04-15T21:41:37.668Z,100043.09
2023-04-15T21:44:05.411Z,100039.44
2023-04-15T21:46:35.910Z,100048.53
2023-04-15T21:49:03.908Z,100046.16
2023-04-15T21:51:32.579Z,100049.75
2023-04-15T21:54:00.407Z,100060.22
2023-04-15T21:56:29.276Z,100059.31
2023-04-15T21:58:58.093Z,100060.97
2023-04-15T22:01:26.526Z,100068.03
2023-04-15T22:03:54.396Z,100057.56
2023-04-15T22:06:22.209Z,100062.78
2023-04-15T22:08:56.657Z,100071.94
2023-04-15T22:11:27.868Z,100078.28
2023-04-15T22:13:57.792Z,100071.00
2023-04-15T22:16:25.807Z,100079.13
2023-04-15T22:18:53.470Z,100077.28
2023-04-15T22:21:20.995Z,100075.28
2023-04-15T22:23:48.558Z,100075.13
2023-04-15T22:26:16.109Z,100084.25
2023-04-15T22:28:44.093Z,100088.53
2023-04-15T22:31:13.700Z,100084.31
2023-04-15T22:33:41.254Z,100088.00
2023-04-15T22:36:08.851Z,100092.53
2023-04-15T22:38:36.882Z,100093.34
2023-04-15T22:41:04.412Z,100098.81
2023-04-15T22:43:31.881Z,100101.44
2023-04-15T22:45:59.417Z,100103.31
2023-04-15T22:48:28.202Z,100100.63
2023-04-15T22:50:55.948Z,100103.31
2023-04-15T22:53:23.469Z,100107.66
2023-04-15T22:55:51.697Z,100107.78
2023-04-15T22:58:19.260Z,100110.38
2023-04-15T23:00:46.856Z,100105.09
2023-04-15T23:03:14.454Z,100111.22
2023-04-15T23:05:45.641Z,100114.91
2023-04-15T23:08:13.202Z,100114.22
2023-04-15T23:10:40.730Z,100125.63
2023-04-15T23:13:08.225Z,100121.88
2023-04-15T23:15:35.931Z,100129.13
2023-04-15T23:18:03.525Z,100124.50
2023-04-15T23:20:31.054Z,100130.06
2023-04-15T23:22:59.863Z,100139.06
2023-04-15T23:25:27.365Z,100138.19
2023-04-15T23:27:55.024Z,100138.28
2023-04-15T23:30:22.644Z,100135.69
2023-04-15T23:32:50.208Z,100138.00
2023-04-15T23:35:17.882Z,100138.28
2023-04-15T23:37:45.403Z,100134.88
2023-04-15T23:40:15.612Z,100136.34
2023-04-15T23:42:43.138Z,100133.03
2023-04-15T23:45:11.781Z,100139.38
2023-04-15T23:47:39.344Z,100141.09
2023-04-15T23:50:08.386Z,100148.22
2023-04-15T23:52:36.266Z,100140.22
2023-04-15T23:55:03.997Z,100143.00
2023-04-15T23:57:32.806Z,100152.81
